createdAt,value
2023-04-03T00:00:39.517Z,4.78
2023-04-03T00:03:44.758Z,4.97
2023-04-03T00:06:47.934Z,4.53
2023-04-03T00:09:52.260Z,4.40
2023-04-03T00:12:55.592Z,4.70
2023-04-03T00:15:59.641Z,4.87
2023-04-03T00:19:02.602Z,4.28
2023-04-03T00:22:05.961Z,3.75
2023-04-03T00:25:12.002Z,4.25
2023-04-03T00:28:15.030Z,4.28
2023-04-03T00:31:21.797Z,3.90
2023-04-03T00:34:45.475Z,3.60
2023-04-03T00:37:48.816Z,4.18
2023-04-03T00:40:51.991Z,3.97
2023-04-03T00:43:55.772Z,3.90
2023-04-03T00:47:08.130Z,4.30
2023-04-03T00:50:11.958Z,3.70
2023-04-03T00:53:23.381Z,3.83
2023-04-03T00:56:29.270Z,4.50
2023-04-03T00:59:36.914Z,4.30
2023-04-03T01:02:42.353Z,3.87
2023-04-03T01:05:46.356Z,3.85
2023-04-03T01:09:00.325Z,3.92
2023-04-03T01:12:27.197Z,4.32
2023-04-03T01:15:35.927Z,3.85
2023-04-03T01:18:41.416Z,3.78
2023-04-03T01:22:06.720Z,3.80
2023-04-03T01:25:30.504Z,3.40
2023-04-03T01:28:55.479Z,3.83
2023-04-03T01:32:01.041Z,4.47
2023-04-03T01:35:09.270Z,4.47
2023-04-03T01:38:12.720Z,4.18
2023-04-03T01:41:17.023Z,3.70
2023-04-03T01:44:42.077Z,3.75
2023-04-03T01:47:45.447Z,3.97
2023-04-03T01:50:48.594Z,4.28
2023-04-03T01:53:52.600Z,4.18
2023-04-03T01:56:55.728Z,4.12
2023-04-03T01:59:59.444Z,4.55
2023-04-03T02:03:03.752Z,3.67
2023-04-03T02:06:07.214Z,4.50
2023-04-03T02:09:09.985Z,3.83
2023-04-03T02:12:13.475Z,3.78
2023-04-03T02:15:17.002Z,4.25
2023-04-03T02:18:22.007Z,3.65
2023-04-03T02:21:25.756Z,4.10
2023-04-03T02:24:32.191Z,3.87
2023-04-03T02:27:55.349Z,3.97
2023-04-03T02:31:21.888Z,3.67
2023-04-03T02:34:25.093Z,4.03
2023-04-03T02:37:28.606Z,3.62
2023-04-03T02:40:32.857Z,3.53
2023-04-03T02:43:39.261Z,3.35
2023-04-03T02:46:42.259Z,3.72
2023-04-03T02:49:46.970Z,3.62
2023-04-03T02:52:50.398Z,3.70
2023-04-03T02:55:53.722Z,3.85
2023-04-03T02:59:00.220Z,4.10
2023-04-03T03:02:06.258Z,3.90
2023-04-03T03:05:09.915Z,3.55
2023-04-03T03:08:21.135Z,3.60
2023-04-03T03:11:24.481Z,4.30
2023-04-03T03:14:27.430Z,3.55
2023-04-03T03:17:30.084Z,3.65
2023-04-03T03:20:33.192Z,3.62
2023-04-03T03:23:38.835Z,3.83
2023-04-03T03:26:42.754Z,3.25
2023-04-03T03:29:45.480Z,3.40
2023-04-03T03:32:50.085Z,3.53
2023-04-03T03:35:54.745Z,3.37
2023-04-03T03:39:00.178Z,3.28
2023-04-03T03:42:03.102Z,4.12
2023-04-03T03:45:07.753Z,3.67
2023-04-03T03:48:10.691Z,4.00
2023-04-03T03:51:15.089Z,3.78
2023-04-03T03:54:19.415Z,3.60
2023-04-03T03:57:23.077Z,3.10
2023-04-03T04:00:26.848Z,3.47
2023-04-03T04:03:30.650Z,3.10
2023-04-03T04:06:39.541Z,3.53
2023-04-03T04:09:45.347Z,3.60
2023-04-03T04:12:50.189Z,3.47
2023-04-03T04:15:54.328Z,3.78
2023-04-03T04:18:59.057Z,3.37
2023-04-03T04:22:03.213Z,3.25
2023-04-03T04:25:07.923Z,3.60
2023-04-03T04:28:13.016Z,3.30
2023-04-03T04:31:16.652Z,3.35
2023-04-03T04:34:40.902Z,3.15
2023-04-03T04:37:44.773Z,2.87
2023-04-03T04:40:49.646Z,3.55
2023-04-03T04:43:52.978Z,3.35
2023-04-03T04:46:56.889Z,2.92
2023-04-03T04:49:59.795Z,3.30
2023-04-03T04:53:27.229Z,3.40
2023-04-03T04:56:50.009Z,3.12
2023-04-03T04:59:53.446Z,3.50
2023-04-03T05:03:16.871Z,3.33
2023-04-03T05:06:21.586Z,3.33
2023-04-03T05:09:28.170Z,3.83
2023-04-03T05:12:51.633Z,3.25
2023-04-03T05:15:54.532Z,3.83
2023-04-03T05:18:57.879Z,3.37
2023-04-03T05:22:01.421Z,3.92
2023-04-03T05:25:07.964Z,3.37
2023-04-03T05:28:12.692Z,3.97
2023-04-03T05:31:16.832Z,3.20
2023-04-03T05:34:20.384Z,3.25
2023-04-03T05:37:23.908Z,3.10
2023-04-03T05:40:27.300Z,3.08
2023-04-03T05:43:30.577Z,2.50
2023-04-03T05:46:34.406Z,2.72
2023-04-03T05:49:41.795Z,3.25
2023-04-03T05:52:50.188Z,3.00
2023-04-03T05:55:54.987Z,2.62
2023-04-03T05:58:58.139Z,2.72
2023-04-03T06:02:05.120Z,2.72
2023-04-03T06:05:09.546Z,2.60
2023-04-03T06:08:12.457Z,2.80
2023-04-03T06:11:16.338Z,2.78
2023-04-03T06:14:19.850Z,2.90
2023-04-03T06:17:43.080Z,3.25
2023-04-03T06:20:46.890Z,2.85
2023-04-03T06:23:49.868Z,3.00
2023-04-03T06:26:53.462Z,2.90
2023-04-03T06:29:56.808Z,2.78
2023-04-03T06:33:00.491Z,2.70
2023-04-03T06:36:07.792Z,2.95
2023-04-03T06:39:15.656Z,2.67
2023-04-03T06:42:19.209Z,2.53
2023-04-03T06:45:22.755Z,2.33
2023-04-03T06:48:26.267Z,2.70
2023-04-03T09:08:24.030Z,1.60
2023-04-03T09:11:48.737Z,1.83
2023-04-03T09:15:24.771Z,4.47
2023-04-03T09:18:43.020Z,2.40
2023-04-03T09:21:46.145Z,2.10
2023-04-03T09:25:05.588Z,2.20
2023-04-03T09:28:11.034Z,1.60
2023-04-03T09:31:27.215Z,3.08
2023-04-03T09:34:37.535Z,1.90
2023-04-03T09:37:43.788Z,1.75
2023-04-03T09:41:03.772Z,2.45
2023-04-03T09:44:22.357Z,2.20
2023-04-03T09:47:26.483Z,2.03
2023-04-03T09:50:30.485Z,1.40
2023-04-03T09:53:39.732Z,1.50
2023-04-03T09:56:51.720Z,1.70
2023-04-03T10:00:05.683Z,1.52
2023-04-03T10:03:34.137Z,1.67
2023-04-03T10:06:49.724Z,1.80
2023-04-03T10:10:15.910Z,1.80
2023-04-03T10:13:22.256Z,1.70
2023-04-03T10:16:28.893Z,1.62
2023-04-03T10:19:49.655Z,1.55
2023-04-03T10:23:21.483Z,1.52
2023-04-03T10:26:46.266Z,1.50
2023-04-03T10:29:52.362Z,1.60
2023-04-03T10:33:32.449Z,1.20
2023-04-03T10:36:44.470Z,1.60
2023-04-03T10:40:03.913Z,1.40
2023-04-03T10:46:31.297Z,1.20
2023-04-03T10:49:39.136Z,1.60
2023-04-03T10:52:47.336Z,1.67
2023-04-03T10:56:04.293Z,1.33
2023-04-03T10:59:09.654Z,1.45
2023-04-03T11:02:32.809Z,1.70
2023-04-03T11:05:40.810Z,1.60
2023-04-03T11:09:15.411Z,1.45
2023-04-03T11:12:26.205Z,1.80
2023-04-03T11:15:33.617Z,2.20
2023-04-03T11:18:58.358Z,2.10
2023-04-03T11:22:12.177Z,2.20
2023-04-03T11:25:23.370Z,1.70
2023-04-03T11:28:27.441Z,1.58
2023-04-03T11:31:47.091Z,2.58
2023-04-03T11:34:55.213Z,2.33
2023-04-03T11:38:03.656Z,2.50
2023-04-03T11:41:08.370Z,2.28
2023-04-03T11:44:39.719Z,2.30
2023-04-03T11:47:55.747Z,2.20
2023-04-03T11:51:02.593Z,2.47
2023-04-03T11:54:45.666Z,1.95
2023-04-03T11:58:02.290Z,2.33
2023-04-03T12:01:32.195Z,2.25
2023-04-03T12:04:35.485Z,1.95
2023-04-03T12:07:38.261Z,2.15
2023-04-03T12:10:41.722Z,2.50
2023-04-03T12:13:53.353Z,2.37
2023-04-03T12:16:58.994Z,2.40
2023-04-03T12:20:01.934Z,2.40
2023-04-03T12:23:24.100Z,1.98
2023-04-03T12:26:52.735Z,2.03
2023-04-03T12:30:04.790Z,1.95
2023-04-03T12:33:46.765Z,2.10
2023-04-03T12:37:02.188Z,2.50
2023-04-03T12:40:22.002Z,2.62
2023-04-03T12:43:37.027Z,2.05
2023-04-03T12:46:45.841Z,2.40
2023-04-03T12:49:51.558Z,1.73
2023-04-03T12:53:12.656Z,1.80
2023-04-03T12:56:24.465Z,2.03
2023-04-03T12:59:30.568Z,2.80
2023-04-03T13:02:38.499Z,2.60
2023-04-03T13:05:46.338Z,2.10
2023-04-03T13:08:54.216Z,2.20
2023-04-03T13:12:04.680Z,2.28
2023-04-03T13:15:46.243Z,2.17
2023-04-03T13:18:54.309Z,2.10
2023-04-03T13:22:06.225Z,2.40
2023-04-03T13:25:11.544Z,1.90
2023-04-03T13:28:19.406Z,2.22
2023-04-03T13:31:34.731Z,2.53
2023-04-03T13:34:42.308Z,2.20
2023-04-03T13:37:56.701Z,2.22
2023-04-03T13:41:05.411Z,2.35
2023-04-03T13:44:16.675Z,2.10
2023-04-03T13:47:23.231Z,2.15
2023-04-03T13:50:27.321Z,2.03
2023-04-03T13:53:35.463Z,2.05
2023-04-03T13:56:42.935Z,2.45
2023-04-03T13:59:47.681Z,2.47
2023-04-03T14:02:50.728Z,2.78
2023-04-03T14:05:54.253Z,2.50
2023-04-03T14:08:56.869Z,2.40
2023-04-03T14:12:11.357Z,2.70
2023-04-03T14:15:28.468Z,3.05
2023-04-03T14:18:33.693Z,2.50
2023-04-03T14:21:36.329Z,2.30
2023-04-03T14:24:40.282Z,2.65
2023-04-03T14:27:58.760Z,2.85
2023-04-03T14:31:02.595Z,2.53
2023-04-03T14:34:07.731Z,2.53
2023-04-03T14:37:18.167Z,1.98
2023-04-03T14:40:25.454Z,2.20
2023-04-03T14:43:28.588Z,2.33
2023-04-03T14:46:54.515Z,2.53
2023-04-03T14:50:06.070Z,2.37
2023-04-03T14:53:12.932Z,2.47
2023-04-03T14:56:22.856Z,2.30
2023-04-03T14:59:26.361Z,2.10
2023-04-03T15:02:35.753Z,2.80
2023-04-03T15:05:49.536Z,2.55
2023-04-03T15:08:52.624Z,2.15
2023-04-03T15:11:56.071Z,2.25
2023-04-03T15:15:02.776Z,2.53
2023-04-03T15:18:07.669Z,2.25
2023-04-03T15:21:10.941Z,2.40
2023-04-03T15:24:13.601Z,2.17
2023-04-03T15:27:16.923Z,2.30
2023-04-03T15:30:20.679Z,2.40
2023-04-03T15:33:24.112Z,2.20
2023-04-03T15:36:34.064Z,2.67
2023-04-03T15:39:37.792Z,2.58
2023-04-03T15:42:41.378Z,2.50
2023-04-03T15:45:45.354Z,2.72
2023-04-03T15:48:48.423Z,2.72
2023-04-03T15:51:51.943Z,2.35
2023-04-03T15:54:54.539Z,2.25
2023-04-03T15:58:02.431Z,2.10
2023-04-03T16:01:06.458Z,2.40
2023-04-03T16:04:11.224Z,2.20
2023-04-03T16:07:22.424Z,2.25
2023-04-03T16:10:30.437Z,2.50
2023-04-03T16:13:37.835Z,2.00
2023-04-03T16:16:45.960Z,2.22
2023-04-03T16:20:11.048Z,2.17
2023-04-03T16:23:50.555Z,2.17
2023-04-03T16:26:54.422Z,2.25
2023-04-03T16:29:58.504Z,2.58
2023-04-03T16:33:01.898Z,2.45
2023-04-03T16:36:26.842Z,2.60
2023-04-03T16:40:13.596Z,2.35
2023-04-03T16:43:17.300Z,2.28
2023-04-03T16:46:39.865Z,2.30
2023-04-03T16:49:43.258Z,2.33
2023-04-03T16:52:47.740Z,2.00
2023-04-03T16:56:11.213Z,2.22
2023-04-03T16:59:13.974Z,2.25
2023-04-03T17:02:17.632Z,1.95
2023-04-03T17:05:22.558Z,2.40
2023-04-03T17:08:27.432Z,2.30
2023-04-03T17:11:31.874Z,2.62
2023-04-03T17:14:59.358Z,2.20
2023-04-03T17:18:42.249Z,2.10
2023-04-03T17:22:26.400Z,2.22
2023-04-03T17:26:09.586Z,2.33
2023-04-03T18:00:01.150Z,2.25
2023-04-03T18:03:05.886Z,2.30
2023-04-03T18:06:38.735Z,3.00
2023-04-03T18:10:09.107Z,2.05
2023-04-03T18:13:16.067Z,2.10
2023-04-03T18:16:43.238Z,2.97
2023-04-03T18:19:46.748Z,2.42
2023-04-03T18:23:09.551Z,2.65
2023-04-03T18:27:00.400Z,2.17
2023-04-03T18:30:23.534Z,2.50
2023-04-03T18:33:48.855Z,2.28
2023-04-03T18:37:28.216Z,2.62
2023-04-03T18:40:34.473Z,2.30
2023-04-03T18:43:46.948Z,2.28
2023-04-03T18:46:50.745Z,2.35
2023-04-03T18:50:33.997Z,2.42
2023-04-03T18:53:48.392Z,2.92
2023-04-03T18:56:55.773Z,2.30
2023-04-03T19:00:41.240Z,2.10
2023-04-03T19:03:48.690Z,2.17
2023-04-03T19:07:11.449Z,2.55
2023-04-03T19:10:34.069Z,2.50
2023-04-03T19:14:14.483Z,2.65
2023-04-03T19:17:38.334Z,2.20
2023-04-03T19:21:09.970Z,2.85
2023-04-03T19:24:41.322Z,2.65
2023-04-03T19:27:54.559Z,4.43
2023-04-03T19:31:02.406Z,3.03
2023-04-03T19:34:23.451Z,2.35
2023-04-03T19:37:28.406Z,2.40
2023-04-03T19:40:32.676Z,3.08
2023-04-03T19:43:35.401Z,2.72
2023-04-03T19:46:38.684Z,2.50
2023-04-03T19:49:51.880Z,2.47
2023-04-03T19:53:19.381Z,2.42
2023-04-03T19:56:23.618Z,2.55
2023-04-03T19:59:47.641Z,2.25
2023-04-03T20:02:56.361Z,2.03
2023-04-03T20:06:00.834Z,2.30
2023-04-03T20:09:06.505Z,2.30
2023-04-03T20:12:10.858Z,2.40
2023-04-03T20:15:14.121Z,2.35
2023-04-03T20:18:21.521Z,2.22
2023-04-03T20:21:33.517Z,2.00
2023-04-03T20:25:05.211Z,2.60
2023-04-03T20:28:25.035Z,2.60
2023-04-03T20:32:10.577Z,2.45
2023-04-03T20:35:36.728Z,2.37
2023-04-03T20:38:40.778Z,1.77
2023-04-03T20:41:44.214Z,2.25
2023-04-03T20:44:48.512Z,2.35
2023-04-03T20:48:04.055Z,1.87
2023-04-03T20:51:19.660Z,2.03
2023-04-03T20:54:42.992Z,2.25
2023-04-03T20:57:54.353Z,2.45
2023-04-03T21:00:58.184Z,2.00
2023-04-03T21:04:13.215Z,2.37
2023-04-03T21:08:02.850Z,2.10
2023-04-03T21:11:47.382Z,2.25
2023-04-03T21:15:31.592Z,2.20
2023-04-03T21:19:04.320Z,2.60
2023-04-03T21:22:16.299Z,2.12
2023-04-03T21:26:04.175Z,2.45
2023-04-03T21:29:12.022Z,2.25
2023-04-03T21:32:43.597Z,1.70
2023-04-03T21:36:08.038Z,1.90
2023-04-03T21:39:23.834Z,1.90
2023-04-03T21:42:27.665Z,2.35
2023-04-03T21:45:58.721Z,1.98
2023-04-03T21:49:22.970Z,2.17
2023-04-03T21:52:26.250Z,1.67
2023-04-03T21:55:55.870Z,1.85
2023-04-03T21:59:03.976Z,2.00
2023-04-03T22:02:27.414Z,2.20
2023-04-03T22:05:32.325Z,2.28
2023-04-03T22:08:39.402Z,2.37
2023-04-03T22:11:46.135Z,2.17
2023-04-03T22:14:49.436Z,1.80
2023-04-03T22:17:55.549Z,2.00
2023-04-03T22:21:01.269Z,2.12
2023-04-03T22:24:16.650Z,1.80
2023-04-03T22:27:19.608Z,1.90
2023-04-03T22:30:27.229Z,2.60
2023-04-03T22:33:31.141Z,2.20
2023-04-03T22:36:34.585Z,2.42
2023-04-03T22:39:39.788Z,2.37
2023-04-03T22:42:58.656Z,2.20
2023-04-03T22:46:05.148Z,2.03
2023-04-03T22:49:10.293Z,1.92
2023-04-03T22:52:13.206Z,2.45
2023-04-03T22:55:37.685Z,1.90
2023-04-03T22:58:41.083Z,2.67
2023-04-03T23:01:45.685Z,2.37
2023-04-03T23:05:28.965Z,2.10
2023-04-03T23:08:38.946Z,1.92
2023-04-03T23:11:43.592Z,2.12
2023-04-03T23:14:47.252Z,2.30
2023-04-03T23:17:50.307Z,2.60
2023-04-03T23:20:57.121Z,1.90
2023-04-03T23:24:01.398Z,2.30
2023-04-03T23:27:07.091Z,2.22
2023-04-03T23:30:10.587Z,2.28
2023-04-03T23:33:14.576Z,2.30
2023-04-03T23:36:18.234Z,2.40
2023-04-03T23:39:23.187Z,2.10
2023-04-03T23:42:27.109Z,2.22
2023-04-03T23:45:30.916Z,2.15
2023-04-03T23:48:35.330Z,2.10
2023-04-03T23:51:58.431Z,2.10
2023-04-03T23:55:02.071Z,2.00
2023-04-03T23:58:25.480Z,2.47
